KBOK

Brookings Airport

Brookings, Oregon, USA
METAR KBOK 212256Z AUTO 14006KT 8SM OVC002 12/11 A2996 RMK AO2 RAB01E12B34E51 SLP160 P0000 T01220111
Observed Flight Rules
Aug-21 @ 22:56 UTC (52 minutes ago) Instrument Flight Rules
Wind Visibility Clouds
140° at 6 knots 8 miles
  • Overcast at 200' AGL
Temperatures Readings Precipitation
Current 12°C / 54°F
Dewpoint 11°C / 52°F
Humidity 94%
Altimeter 29.96" Hg
Pressure 1016 hPa
Elevation 140
Current Rain 0.005
METAR KBOK 212256Z AUTO 14006KT 8SM OVC002 12/11 A2996 RMK AO2 RAB01E12B34E51 SLP160 P0000 T01220111
Observed Flight Rules
Aug-21 @ 22:56 UTC
(52 minutes ago)
LIFR
Wind Visibility
140° at 6 knots 8 miles
Clouds
  • Overcast at 200' AGL
Temperature Dewpoint
12°C / 54°F 11°C / 52°F
Humidity Altimeter Pressure
94% 29.96" Hg 1016 hPa
Current Rain
0.005